createdAt,value
2023-01-15T00:01:05.776Z,-0.44
2023-01-15T00:02:11.637Z,-0.36
2023-01-15T00:03:15.728Z,-0.34
2023-01-15T00:04:20.726Z,-0.52
2023-01-15T00:05:24.985Z,-0.41
2023-01-15T00:06:28.746Z,-0.42
2023-01-15T00:07:34.062Z,-0.35
2023-01-15T00:08:38.102Z,-0.41
2023-01-15T00:09:43.078Z,-0.29
2023-01-15T00:10:46.065Z,-0.33
2023-01-15T00:11:49.725Z,-0.35
2023-01-15T00:12:54.110Z,-0.37
2023-01-15T00:13:57.556Z,-0.32
2023-01-15T00:15:01.991Z,-0.42
2023-01-15T00:16:13.644Z,-0.34
2023-01-15T00:17:18.575Z,-0.31
2023-01-15T00:18:22.154Z,-0.32
2023-01-15T00:19:26.580Z,-0.31
2023-01-15T00:20:36.594Z,-0.33
2023-01-15T00:21:41.574Z,-0.38
2023-01-15T00:22:44.920Z,-0.38
2023-01-15T00:24:09.441Z,-0.48
2023-01-15T00:25:32.886Z,-0.48
2023-01-15T00:26:59.824Z,-0.29
2023-01-15T00:28:08.003Z,-0.34
2023-01-15T00:29:33.134Z,-0.19
2023-01-15T00:30:41.969Z,-0.39
2023-01-15T00:31:58.323Z,-0.35
2023-01-15T00:33:01.553Z,-0.36
2023-01-15T00:34:07.537Z,-0.31
2023-01-15T00:35:23.094Z,-0.33
2023-01-15T00:36:31.937Z,-0.38
2023-01-15T00:37:35.673Z,-0.35
2023-01-15T00:38:39.838Z,-0.30
2023-01-15T00:39:45.494Z,-0.24
2023-01-15T00:40:53.504Z,-0.30
2023-01-15T00:41:58.088Z,-0.29
2023-01-15T00:43:04.927Z,-0.44
2023-01-15T00:44:11.662Z,-0.33
2023-01-15T00:45:17.625Z,-0.27
2023-01-15T00:46:22.035Z,-0.25
2023-01-15T00:47:26.519Z,-0.11
2023-01-15T00:48:34.329Z,-0.17
2023-01-15T00:49:44.511Z,-0.30
2023-01-15T00:50:48.011Z,-0.26
2023-01-15T00:51:52.320Z,-0.27
2023-01-15T00:52:55.755Z,-0.18
2023-01-15T00:54:01.692Z,-0.10
2023-01-15T00:55:07.647Z,-0.37
2023-01-15T00:56:12.297Z,-0.29
2023-01-15T00:57:15.750Z,-0.27
2023-01-15T00:58:22.913Z,-0.36
2023-01-15T00:59:28.065Z,-0.33
2023-01-15T01:00:32.208Z,-0.39
2023-01-15T01:01:36.175Z,-0.36
2023-01-15T01:02:40.366Z,-0.33
2023-01-15T01:03:50.383Z,-0.41
2023-01-15T01:04:55.515Z,-0.36
2023-01-15T01:06:05.474Z,-0.27
2023-01-15T01:07:08.741Z,-0.33
2023-01-15T01:08:13.458Z,-0.33
2023-01-15T01:09:20.664Z,-0.39
2023-01-15T01:10:23.929Z,-0.51
2023-01-15T01:11:34.297Z,-0.42
2023-01-15T01:12:39.345Z,-0.40
2023-01-15T01:13:48.483Z,-0.36
2023-01-15T01:14:52.813Z,-0.34
2023-01-15T01:15:59.004Z,-0.41
2023-01-15T01:17:04.653Z,-0.45
2023-01-15T01:18:08.303Z,-0.39
2023-01-15T01:19:16.821Z,-0.30
2023-01-15T01:20:21.893Z,-0.26
2023-01-15T01:21:26.764Z,-0.24
2023-01-15T01:22:34.594Z,-0.41
2023-01-15T01:23:40.346Z,-0.38
2023-01-15T01:24:44.791Z,-0.31
2023-01-15T01:25:48.750Z,-0.33
2023-01-15T01:26:54.322Z,-0.30
2023-01-15T01:27:57.929Z,-0.26
2023-01-15T01:29:01.414Z,-0.21
2023-01-15T01:30:06.946Z,-0.32
2023-01-15T01:31:12.091Z,-0.24
2023-01-15T01:32:15.543Z,-0.33
2023-01-15T01:33:20.419Z,-0.29
2023-01-15T01:34:25.392Z,-0.34
2023-01-15T01:35:35.577Z,-0.40
2023-01-15T01:36:46.044Z,-0.33
2023-01-15T01:37:56.886Z,-0.33
2023-01-15T01:39:01.963Z,-0.29
2023-01-15T01:40:08.842Z,-0.18
2023-01-15T01:41:14.127Z,-0.36
2023-01-15T01:42:19.559Z,-0.35
2023-01-15T01:43:30.855Z,-0.26
2023-01-15T01:44:37.377Z,-0.18
2023-01-15T01:45:42.264Z,-0.28
2023-01-15T01:46:48.749Z,-0.25
2023-01-15T01:48:25.783Z,-0.32
2023-01-15T01:49:31.671Z,-0.38
2023-01-15T01:50:38.850Z,-0.30
2023-01-15T01:51:50.561Z,-0.32
2023-01-15T01:52:59.237Z,-0.39
2023-01-15T01:54:04.253Z,-0.44
2023-01-15T01:55:10.267Z,-0.42
2023-01-15T01:56:13.568Z,-0.40
2023-01-15T01:57:19.802Z,-0.42
2023-01-15T01:58:25.781Z,-0.43
2023-01-15T01:59:32.453Z,-0.37
2023-01-15T02:00:45.708Z,-0.37
2023-01-15T02:01:50.292Z,-0.40
2023-01-15T02:02:58.592Z,-0.36
2023-01-15T02:04:04.050Z,-0.28
2023-01-15T02:05:09.920Z,-0.33
2023-01-15T02:06:15.054Z,-0.30
2023-01-15T02:07:18.493Z,-0.25
2023-01-15T02:08:23.068Z,-0.23
2023-01-15T02:09:31.202Z,-0.20
2023-01-15T02:10:36.390Z,-0.41
2023-01-15T02:11:41.795Z,-0.39
2023-01-15T02:12:52.809Z,-0.41
2023-01-15T02:14:13.000Z,-0.40
2023-01-15T02:15:37.696Z,-0.25
2023-01-15T02:16:46.886Z,-0.29
2023-01-15T02:18:13.287Z,-0.29
2023-01-15T02:19:52.982Z,-0.35
2023-01-15T02:21:11.119Z,-0.32
2023-01-15T02:22:19.939Z,-0.31
2023-01-15T02:23:41.952Z,-0.34
2023-01-15T02:25:15.661Z,-0.30
2023-01-15T02:26:39.627Z,-0.23
2023-01-15T02:27:49.951Z,-0.27
2023-01-15T02:28:59.867Z,-0.27
2023-01-15T02:30:26.988Z,-0.37
2023-01-15T02:31:54.936Z,-0.49
2023-01-15T02:33:18.583Z,-0.28
2023-01-15T02:34:34.987Z,-0.37
2023-01-15T02:35:56.857Z,-0.30
2023-01-15T02:37:23.287Z,-0.46
2023-01-15T02:38:32.125Z,-0.30
2023-01-15T02:39:40.960Z,-0.35
2023-01-15T02:44:22.838Z,-0.45
2023-01-15T02:45:40.019Z,-0.35
2023-01-15T02:46:49.429Z,-0.31
2023-01-15T02:47:58.264Z,-0.28
2023-01-15T02:49:07.096Z,-0.28
2023-01-15T02:50:21.686Z,-0.26
2023-01-15T02:51:38.006Z,-0.26
2023-01-15T02:52:48.028Z,-0.23
2023-01-15T02:54:03.007Z,-0.20
2023-01-15T02:55:20.016Z,-0.31
2023-01-15T02:56:28.784Z,-0.18
2023-01-15T02:57:39.249Z,-0.29
2023-01-15T02:58:46.899Z,-0.25
2023-01-15T03:00:01.838Z,-0.17
2023-01-15T03:01:19.229Z,-0.08
2023-01-15T03:02:30.645Z,-0.21
2023-01-15T03:03:34.394Z,-0.25
2023-01-15T03:04:59.670Z,-0.17
2023-01-15T03:06:11.644Z,-0.11
2023-01-15T03:07:27.954Z,-0.15
2023-01-15T03:08:32.730Z,-0.22
2023-01-15T03:09:37.965Z,-0.08
2023-01-15T03:11:12.390Z,-0.28
2023-01-15T03:12:27.782Z,-0.32
2023-01-15T03:13:51.544Z,-0.24
2023-01-15T03:15:40.693Z,-0.21
2023-01-15T03:16:53.103Z,-0.14
2023-01-15T03:17:56.972Z,-0.16
2023-01-15T03:19:05.603Z,-0.04
2023-01-15T03:20:17.841Z,-0.02
2023-01-15T03:21:31.056Z,-0.23
2023-01-15T03:22:40.298Z,-0.21
2023-01-15T03:23:50.538Z,-0.28
2023-01-15T03:25:14.698Z,-0.21
2023-01-15T03:26:23.669Z,-0.21
2023-01-15T03:27:28.117Z,-0.25
2023-01-15T03:28:37.280Z,-0.28
2023-01-15T03:29:48.221Z,-0.29
2023-01-15T03:30:54.011Z,-0.19
2023-01-15T03:32:00.611Z,-0.17
2023-01-15T03:33:05.757Z,-0.04
2023-01-15T03:34:09.844Z,-0.16
2023-01-15T03:35:41.517Z,-0.12
2023-01-15T03:36:46.469Z,-0.07
2023-01-15T03:37:50.853Z,-0.17
2023-01-15T03:38:55.690Z,-0.25
2023-01-15T03:40:16.654Z,-0.13
2023-01-15T03:41:39.210Z,-0.07
2023-01-15T03:43:26.015Z,-0.04
2023-01-15T03:44:46.086Z,-0.18
2023-01-15T03:45:55.939Z,-0.17
2023-01-15T03:47:13.461Z,-0.13
2023-01-15T03:48:28.319Z,-0.15
2023-01-15T03:49:58.713Z,-0.20
2023-01-15T03:51:41.243Z,-0.12
2023-01-15T03:53:24.205Z,-0.05
2023-01-15T03:55:16.350Z,-0.12
2023-01-15T03:56:45.207Z,-0.09
2023-01-15T03:58:01.206Z,-0.12
2023-01-15T03:59:33.752Z,-0.10
2023-01-15T04:00:52.915Z,-0.07
2023-01-15T04:02:00.423Z,-0.08
2023-01-15T04:03:11.502Z,-0.09
2023-01-15T04:04:16.978Z,-0.15
2023-01-15T04:05:22.401Z,-0.12
2023-01-15T04:06:32.968Z,-0.07
2023-01-15T04:07:37.618Z,-0.18
2023-01-15T04:08:44.907Z,-0.17
2023-01-15T04:09:50.751Z,-0.29
2023-01-15T04:10:59.491Z,-0.16
2023-01-15T04:12:06.913Z,-0.15
2023-01-15T04:13:16.931Z,-0.12
2023-01-15T04:14:19.940Z,-0.17
2023-01-15T04:15:27.616Z,-0.12
2023-01-15T04:16:34.762Z,-0.07
2023-01-15T04:17:40.254Z,-0.10
2023-01-15T04:18:44.605Z,-0.12
2023-01-15T04:19:49.072Z,-0.24
2023-01-15T04:20:53.088Z,-0.18
2023-01-15T04:21:56.072Z,-0.21
2023-01-15T04:23:03.653Z,-0.24
2023-01-15T04:24:08.622Z,-0.24
2023-01-15T04:25:13.082Z,-0.13
2023-01-15T04:26:18.342Z,-0.06
2023-01-15T04:27:22.686Z,-0.07
2023-01-15T04:28:25.424Z,-0.02
2023-01-15T04:29:29.786Z,-0.22
2023-01-15T04:30:35.475Z,-0.08
2023-01-15T04:31:38.860Z,-0.03
2023-01-15T04:34:12.245Z,-0.15
2023-01-15T04:35:16.107Z,-0.21
2023-01-15T04:36:20.862Z,-0.15
2023-01-15T04:37:23.895Z,-0.23
2023-01-15T04:38:27.771Z,-0.34
2023-01-15T04:39:30.878Z,-0.26
2023-01-15T04:40:55.226Z,-0.20
2023-01-15T04:42:27.642Z,-0.18
2023-01-15T04:43:49.207Z,-0.19
2023-01-15T04:44:56.787Z,-0.12
2023-01-15T04:46:02.352Z,-0.16
2023-01-15T04:47:07.234Z,-0.12
2023-01-15T04:48:13.784Z,-0.07
2023-01-15T04:49:19.516Z,-0.21
2023-01-15T04:50:22.523Z,-0.18
2023-01-15T04:51:26.727Z,-0.17
2023-01-15T04:52:37.361Z,-0.21
2023-01-15T04:53:41.081Z,-0.18
2023-01-15T04:54:43.943Z,-0.30
2023-01-15T04:55:48.358Z,-0.14
2023-01-15T04:56:55.856Z,-0.15
2023-01-15T04:58:00.147Z,-0.32
2023-01-15T04:59:14.676Z,-0.26
2023-01-15T05:00:18.501Z,-0.22
2023-01-15T05:01:25.108Z,-0.29
2023-01-15T05:02:29.597Z,-0.23
2023-01-15T05:03:33.763Z,-0.20
2023-01-15T05:04:37.954Z,-0.21
2023-01-15T05:05:43.339Z,-0.14
2023-01-15T05:06:50.124Z,-0.03
2023-01-15T05:07:58.963Z,-0.10
2023-01-15T05:09:08.542Z,-0.09
2023-01-15T05:10:14.217Z,0.01
2023-01-15T05:11:25.153Z,-0.11
2023-01-15T05:12:30.044Z,-0.09
2023-01-15T05:13:36.158Z,-0.07
2023-01-15T05:14:43.429Z,-0.11
2023-01-15T05:15:49.931Z,-0.25
2023-01-15T05:16:53.891Z,-0.14
2023-01-15T05:17:58.145Z,-0.20
2023-01-15T05:19:05.169Z,-0.15
2023-01-15T05:20:11.540Z,-0.22
2023-01-15T05:21:35.065Z,-0.27
2023-01-15T05:22:38.514Z,-0.43
2023-01-15T05:23:44.143Z,-0.26
2023-01-15T05:24:47.320Z,-0.32
2023-01-15T05:25:56.527Z,-0.32
2023-01-15T05:27:00.870Z,-0.28
2023-01-15T05:28:13.147Z,-0.32
2023-01-15T05:29:18.483Z,-0.23
2023-01-15T05:30:24.468Z,-0.29
2023-01-15T05:31:28.451Z,-0.25
2023-01-15T05:32:40.970Z,-0.23
2023-01-15T05:33:51.267Z,-0.25
2023-01-15T05:34:57.382Z,-0.28
2023-01-15T05:36:06.938Z,-0.28
2023-01-15T05:37:13.900Z,-0.27
2023-01-15T05:38:24.132Z,-0.35
2023-01-15T05:43:11.583Z,-0.21
2023-01-15T05:44:17.791Z,-0.22
2023-01-15T05:45:27.313Z,-0.25
2023-01-15T05:46:42.908Z,-0.30
2023-01-15T05:47:59.918Z,-0.25
2023-01-15T05:49:19.994Z,-0.29
2023-01-15T05:50:24.726Z,-0.35
2023-01-15T05:52:50.828Z,-0.32
2023-01-15T05:54:05.186Z,-0.28
2023-01-15T05:55:13.240Z,-0.28
2023-01-15T05:57:44.875Z,-0.32
2023-01-15T05:58:54.535Z,-0.38
2023-01-15T06:00:40.104Z,-0.42
2023-01-15T06:01:46.866Z,-0.43
2023-01-15T06:03:15.021Z,-0.59
2023-01-15T06:04:21.718Z,-0.50
2023-01-15T06:05:28.096Z,-0.63
2023-01-15T06:06:41.983Z,-0.54
2023-01-15T06:12:34.140Z,-0.58
2023-01-15T06:13:42.408Z,-0.59
2023-01-15T06:15:13.604Z,-0.60
2023-01-15T06:16:27.876Z,-0.52
2023-01-15T06:17:34.142Z,-0.58
2023-01-15T06:18:42.438Z,-0.48
2023-01-15T06:19:48.772Z,-0.57
2023-01-15T06:21:05.703Z,-0.53
2023-01-15T06:22:29.545Z,-0.47
2023-01-15T06:23:45.615Z,-0.53
2023-01-15T06:24:55.066Z,-0.61
2023-01-15T06:26:02.283Z,-0.54
2023-01-15T06:27:15.165Z,-0.52
2023-01-15T07:05:59.534Z,-0.17
2023-01-15T08:37:01.766Z,0.14
2023-01-15T08:38:22.137Z,0.08
2023-01-15T08:39:29.262Z,0.01
2023-01-15T08:40:36.207Z,0.12
2023-01-15T08:41:45.797Z,0.12
2023-01-15T08:46:42.864Z,0.08
2023-01-15T08:47:47.572Z,0.11
2023-01-15T08:48:51.732Z,0.03
2023-01-15T08:49:58.057Z,0.11
2023-01-15T08:51:09.769Z,0.12
2023-01-15T08:57:32.056Z,0.28
2023-01-15T08:58:52.877Z,0.39
2023-01-15T09:02:45.277Z,0.12
2023-01-15T09:04:49.573Z,0.30
2023-01-15T09:57:22.910Z,0.73
2023-01-15T10:21:56.295Z,0.72
2023-01-15T10:38:08.558Z,0.64
2023-01-15T10:44:14.662Z,0.66
2023-01-15T10:49:30.082Z,0.72
2023-01-15T11:27:40.455Z,0.81
2023-01-15T11:29:30.198Z,0.71
2023-01-15T11:30:55.210Z,0.77
2023-01-15T11:33:57.687Z,0.66
2023-01-15T11:38:52.075Z,0.72
2023-01-15T11:42:42.662Z,0.69
2023-01-15T12:11:48.125Z,0.62
2023-01-15T12:25:33.903Z,0.50
2023-01-15T12:31:16.045Z,0.60
2023-01-15T12:33:02.457Z,0.57
2023-01-15T12:34:50.165Z,0.44
2023-01-15T12:36:32.139Z,0.46
2023-01-15T12:38:17.171Z,0.47
2023-01-15T12:39:50.692Z,0.50
2023-01-15T12:41:57.979Z,0.47
2023-01-15T12:44:20.403Z,0.45
2023-01-15T12:45:37.330Z,0.44
2023-01-15T12:46:59.161Z,0.39
2023-01-15T13:02:00.994Z,0.33
2023-01-15T13:04:52.319Z,0.31
2023-01-15T13:16:31.158Z,0.22
2023-01-15T13:31:46.550Z,0.32
2023-01-15T13:35:03.269Z,0.17
2023-01-15T13:38:48.640Z,0.05
2023-01-15T13:42:56.498Z,0.16
2023-01-15T13:52:42.903Z,0.03
2023-01-15T13:57:51.654Z,-0.03
2023-01-15T13:59:52.769Z,-0.03
2023-01-15T14:01:33.297Z,-0.05
2023-01-15T14:03:09.251Z,0.00
2023-01-15T14:05:42.661Z,0.01
2023-01-15T14:06:54.463Z,-0.03
2023-01-15T14:09:12.624Z,0.07
2023-01-15T14:10:24.242Z,0.12
2023-01-15T14:14:54.233Z,0.01
2023-01-15T14:16:19.509Z,-0.03
2023-01-15T14:20:39.711Z,-0.02
2023-01-15T14:22:25.306Z,-0.03
2023-01-15T14:24:41.358Z,-0.09
2023-01-15T14:28:44.938Z,-0.05
2023-01-15T14:30:37.947Z,0.12
2023-01-15T14:43:12.827Z,-0.09
2023-01-15T14:44:32.694Z,0.03
2023-01-15T14:45:39.792Z,-0.03
2023-01-15T14:46:48.973Z,-0.12
2023-01-15T14:50:42.449Z,-0.12
2023-01-15T14:52:21.893Z,-0.02
2023-01-15T14:53:50.305Z,-0.05
2023-01-15T14:54:57.977Z,-0.13
2023-01-15T14:56:24.508Z,-0.26
2023-01-15T14:59:37.641Z,-0.28
2023-01-15T15:00:58.185Z,-0.18
2023-01-15T15:02:46.675Z,-0.13
2023-01-15T15:04:25.649Z,-0.13
2023-01-15T15:05:40.182Z,-0.21
2023-01-15T15:07:07.079Z,-0.23
2023-01-15T15:10:43.970Z,-0.17
2023-01-15T15:12:24.598Z,-0.13
2023-01-15T15:13:58.172Z,-0.25
2023-01-15T15:15:21.652Z,-0.22
2023-01-15T15:18:53.325Z,-0.24
2023-01-15T15:20:46.885Z,-0.28
2023-01-15T15:22:17.272Z,-0.27
2023-01-15T15:23:52.560Z,-0.27
2023-01-15T15:26:27.040Z,-0.31
2023-01-15T15:27:43.882Z,-0.24
2023-01-15T15:44:15.625Z,-0.29
2023-01-15T15:45:56.086Z,-0.45
2023-01-15T15:48:19.649Z,-0.47
2023-01-15T15:49:41.945Z,-0.47
2023-01-15T15:51:12.869Z,-0.50
2023-01-15T15:52:40.928Z,-0.39
2023-01-15T15:53:50.285Z,-0.43
2023-01-15T15:55:05.167Z,-0.45
2023-01-15T15:56:42.082Z,-0.38
2023-01-15T15:57:50.364Z,-0.36
2023-01-15T15:59:54.991Z,-0.44
2023-01-15T16:04:02.596Z,-0.54
2023-01-15T16:05:23.759Z,-0.55
2023-01-15T16:06:34.687Z,-0.72
2023-01-15T16:08:19.328Z,-0.66
2023-01-15T16:34:22.523Z,-1.07
2023-01-15T16:37:04.895Z,-1.12
2023-01-15T16:39:57.646Z,-1.15
2023-01-15T16:41:44.822Z,-1.28
2023-01-15T16:43:12.449Z,-1.13
2023-01-15T16:44:47.092Z,-1.33
2023-01-15T16:46:33.683Z,-1.26
2023-01-15T16:48:07.554Z,-1.45
2023-01-15T16:49:30.819Z,-1.47
2023-01-15T16:51:02.777Z,-1.42
2023-01-15T16:52:39.813Z,-1.36
2023-01-15T16:53:44.524Z,-1.41
2023-01-15T16:54:55.349Z,-1.40
2023-01-15T16:56:04.468Z,-1.46
2023-01-15T16:57:38.459Z,-1.42
2023-01-15T16:58:43.266Z,-1.42
2023-01-15T17:00:05.035Z,-1.51
2023-01-15T17:01:47.788Z,-1.40
2023-01-15T17:02:53.761Z,-1.51
2023-01-15T17:04:01.254Z,-1.40
2023-01-15T17:05:25.075Z,-1.49
2023-01-15T17:06:30.504Z,-1.47
2023-01-15T17:07:39.497Z,-1.46
2023-01-15T17:08:51.793Z,-1.42
2023-01-15T17:10:18.496Z,-1.56
2023-01-15T17:11:32.256Z,-1.48
2023-01-15T17:12:56.593Z,-1.56
2023-01-15T17:14:29.772Z,-1.52
2023-01-15T17:21:36.237Z,-1.74
2023-01-15T17:24:36.408Z,-1.75
2023-01-15T17:25:41.163Z,-1.73
2023-01-15T17:26:49.121Z,-1.67
2023-01-15T17:28:00.511Z,-1.61
2023-01-15T17:29:17.282Z,-1.62
2023-01-15T17:30:34.564Z,-1.61
2023-01-15T17:31:49.902Z,-1.54
2023-01-15T17:33:03.443Z,-1.45
2023-01-15T17:34:16.249Z,-1.49
2023-01-15T17:35:32.219Z,-1.50
2023-01-15T17:36:42.467Z,-1.41
2023-01-15T17:37:46.115Z,-1.38
2023-01-15T17:38:54.843Z,-1.45
2023-01-15T17:40:01.386Z,-1.34
2023-01-15T17:41:17.694Z,-1.48
2023-01-15T17:42:29.729Z,-1.44
2023-01-15T17:43:42.649Z,-1.45
2023-01-15T17:44:52.403Z,-1.46
2023-01-15T17:45:58.498Z,-1.45
2023-01-15T17:47:02.685Z,-1.40
2023-01-15T17:48:10.925Z,-1.48
2023-01-15T17:49:25.081Z,-1.37
2023-01-15T17:50:42.418Z,-1.50
2023-01-15T17:51:51.602Z,-1.43
2023-01-15T17:53:15.388Z,-1.43
2023-01-15T17:54:45.429Z,-1.42
2023-01-15T17:56:17.694Z,-1.49
2023-01-15T18:08:31.619Z,-1.55
2023-01-15T18:09:40.195Z,-1.57
2023-01-15T18:10:49.667Z,-1.65
2023-01-15T18:11:58.104Z,-1.52
2023-01-15T18:13:03.253Z,-1.48
2023-01-15T18:14:09.061Z,-1.44
2023-01-15T18:15:14.977Z,-1.45
2023-01-15T18:16:19.364Z,-1.35
2023-01-15T18:17:25.099Z,-1.50
2023-01-15T18:18:36.823Z,-1.49
2023-01-15T18:19:41.634Z,-1.53
2023-01-15T18:20:47.839Z,-1.51
2023-01-15T18:21:53.150Z,-1.51
2023-01-15T18:22:55.464Z,-1.45
2023-01-15T18:23:59.856Z,-1.49
2023-01-15T18:25:07.084Z,-1.47
2023-01-15T18:26:12.562Z,-1.51
2023-01-15T18:27:19.513Z,-1.43
2023-01-15T18:29:20.780Z,-1.38
2023-01-15T18:30:35.130Z,-1.43
2023-01-15T18:32:13.170Z,-1.51
2023-01-15T18:33:19.476Z,-1.45
2023-01-15T18:34:30.527Z,-1.45
2023-01-15T18:35:38.737Z,-1.44
2023-01-15T18:37:02.525Z,-1.40
2023-01-15T18:38:39.632Z,-1.46
2023-01-15T18:39:46.585Z,-1.49
2023-01-15T18:40:57.353Z,-1.47
2023-01-15T18:42:03.051Z,-1.42
2023-01-15T18:43:27.441Z,-1.39
2023-01-15T18:44:55.783Z,-1.40
2023-01-15T18:46:24.760Z,-1.45
2023-01-15T18:48:10.350Z,-1.49
2023-01-15T18:49:14.844Z,-1.57
2023-01-15T18:50:25.708Z,-1.56
2023-01-15T18:51:31.576Z,-1.52
2023-01-15T18:52:56.712Z,-1.58
2023-01-15T18:54:11.709Z,-1.55
2023-01-15T18:55:31.238Z,-1.59
2023-01-15T18:56:42.796Z,-1.50
2023-01-15T18:57:47.676Z,-1.51
2023-01-15T18:58:58.212Z,-1.41
2023-01-15T19:00:08.488Z,-1.38
2023-01-15T19:01:20.679Z,-1.33
2023-01-15T19:02:30.067Z,-1.40
2023-01-15T19:05:24.932Z,-1.39
2023-01-15T19:06:53.185Z,-1.38
2023-01-15T19:08:00.895Z,-1.30
2023-01-15T19:09:13.981Z,-1.50
2023-01-15T19:10:23.223Z,-1.34
2023-01-15T19:11:50.457Z,-1.39
2023-01-15T19:12:55.036Z,-1.46
2023-01-15T19:14:19.565Z,-1.36
2023-01-15T19:15:42.958Z,-1.33
2023-01-15T19:17:05.034Z,-1.54
2023-01-15T19:18:31.709Z,-1.67
2023-01-15T19:20:01.546Z,-1.53
2023-01-15T19:21:14.672Z,-1.56
2023-01-15T19:22:40.481Z,-1.53
2023-01-15T19:23:55.186Z,-1.54
2023-01-15T19:25:01.502Z,-1.48
2023-01-15T19:26:08.029Z,-1.48
2023-01-15T19:27:28.143Z,-1.57
2023-01-15T19:28:43.390Z,-1.52
2023-01-15T19:29:53.519Z,-1.52
2023-01-15T19:31:36.639Z,-1.48
2023-01-15T19:32:47.163Z,-1.46
2023-01-15T19:34:31.151Z,-1.47
2023-01-15T19:35:53.067Z,-1.48
2023-01-15T19:37:09.114Z,-1.55
2023-01-15T19:38:26.618Z,-1.56
2023-01-15T19:39:36.721Z,-1.69
2023-01-15T19:40:46.917Z,-1.68
2023-01-15T19:42:20.111Z,-1.67
2023-01-15T19:43:47.525Z,-1.63
2023-01-15T19:45:13.524Z,-1.59
2023-01-15T19:46:41.690Z,-1.49
2023-01-15T19:48:06.915Z,-1.50
2023-01-15T19:49:43.135Z,-1.53
2023-01-15T19:50:49.805Z,-1.48
2023-01-15T19:52:22.123Z,-1.49
2023-01-15T19:53:28.812Z,-1.49
2023-01-15T19:54:55.490Z,-1.41
2023-01-15T19:56:17.270Z,-1.46
2023-01-15T19:57:27.534Z,-1.42
2023-01-15T19:58:42.482Z,-1.41
2023-01-15T19:59:56.061Z,-1.36
2023-01-15T20:01:18.658Z,-1.36
2023-01-15T20:02:30.959Z,-1.37
2023-01-15T20:06:06.982Z,-1.38
2023-01-15T20:07:29.287Z,-1.46
2023-01-15T20:09:05.536Z,-1.49
2023-01-15T20:10:41.403Z,-1.59
2023-01-15T20:12:08.351Z,-1.64
2023-01-15T20:13:38.131Z,-1.66
2023-01-15T20:15:27.626Z,-1.63
2023-01-15T20:16:32.074Z,-1.68
2023-01-15T20:19:33.278Z,-1.56
2023-01-15T20:25:55.720Z,-1.67
2023-01-15T20:27:11.721Z,-1.55
2023-01-15T20:28:27.876Z,-1.54
2023-01-15T20:29:40.650Z,-1.64
2023-01-15T20:30:47.778Z,-1.46
2023-01-15T20:31:57.378Z,-1.58
2023-01-15T20:33:07.650Z,-1.67
2023-01-15T20:36:09.727Z,-1.54
2023-01-15T20:37:19.581Z,-1.63
2023-01-15T20:38:31.615Z,-1.64
2023-01-15T20:39:37.789Z,-1.63
2023-01-15T20:40:49.065Z,-1.65
2023-01-15T20:42:13.265Z,-1.61
2023-01-15T20:43:43.440Z,-1.63
2023-01-15T20:44:56.593Z,-1.57
2023-01-15T20:46:20.911Z,-1.64
2023-01-15T20:47:48.918Z,-1.67
2023-01-15T20:49:11.313Z,-1.68
2023-01-15T20:50:17.651Z,-1.81
2023-01-15T20:51:41.387Z,-1.80
2023-01-15T20:52:50.566Z,-1.72
2023-01-15T20:54:02.194Z,-1.83
2023-01-15T20:55:09.043Z,-1.73
2023-01-15T20:56:19.409Z,-1.80
2023-01-15T20:57:30.245Z,-1.83
2023-01-15T20:58:35.947Z,-1.75
2023-01-15T20:59:39.771Z,-1.73
2023-01-15T21:00:43.160Z,-1.73
2023-01-15T21:01:51.308Z,-1.73
2023-01-15T21:03:02.241Z,-1.76
2023-01-15T21:04:14.893Z,-1.82
2023-01-15T21:05:21.916Z,-1.72
2023-01-15T21:06:28.050Z,-1.65
2023-01-15T21:07:33.892Z,-1.85
2023-01-15T21:08:37.524Z,-1.74
2023-01-15T21:09:40.990Z,-1.79
2023-01-15T21:10:59.127Z,-1.72
2023-01-15T21:12:03.281Z,-1.67
2023-01-15T21:13:10.807Z,-1.74
2023-01-15T21:14:15.870Z,-1.90
2023-01-15T21:15:20.544Z,-1.79
2023-01-15T21:16:27.037Z,-1.77
2023-01-15T21:17:31.520Z,-1.85
2023-01-15T21:18:45.465Z,-1.73
2023-01-15T21:19:49.481Z,-1.89
2023-01-15T21:20:58.625Z,-1.88
2023-01-15T21:22:05.708Z,-2.00
2023-01-15T21:23:10.965Z,-1.81
2023-01-15T21:24:17.417Z,-1.82
2023-01-15T21:25:22.260Z,-1.86
2023-01-15T21:26:27.341Z,-1.70
2023-01-15T21:27:33.634Z,-1.77
2023-01-15T21:28:39.344Z,-1.89
2023-01-15T21:29:48.987Z,-1.76
2023-01-15T21:30:52.070Z,-1.77
2023-01-15T21:32:00.650Z,-1.84
2023-01-15T21:33:12.540Z,-1.82
2023-01-15T21:34:20.080Z,-1.78
2023-01-15T21:35:23.438Z,-1.73
2023-01-15T21:36:28.252Z,-1.76
2023-01-15T21:37:31.675Z,-1.87
2023-01-15T21:38:35.830Z,-1.86
2023-01-15T21:39:39.424Z,-1.82
2023-01-15T21:40:42.699Z,-1.94
2023-01-15T21:42:04.743Z,-1.90
2023-01-15T21:43:26.493Z,-1.88
2023-01-15T21:44:32.587Z,-1.86
2023-01-15T21:45:38.941Z,-1.90
2023-01-15T21:46:43.471Z,-1.96
2023-01-15T21:47:49.898Z,-1.99
2023-01-15T21:48:53.268Z,-1.93
2023-01-15T21:50:00.218Z,-1.93
2023-01-15T21:51:06.676Z,-1.95
2023-01-15T21:52:15.966Z,-1.96
2023-01-15T21:53:21.077Z,-1.87
2023-01-15T21:54:25.347Z,-1.94
2023-01-15T21:55:30.895Z,-1.85
2023-01-15T21:56:38.907Z,-2.00
2023-01-15T21:57:45.178Z,-1.92
2023-01-15T21:58:51.250Z,-1.87
2023-01-15T22:00:00.383Z,-1.94
2023-01-15T22:01:14.870Z,-2.06
2023-01-15T22:02:22.058Z,-1.99
2023-01-15T22:03:25.809Z,-1.99
2023-01-15T22:04:31.559Z,-2.02
2023-01-15T22:05:34.858Z,-2.05
2023-01-15T22:06:38.220Z,-1.94
2023-01-15T22:07:41.623Z,-1.95
2023-01-15T22:08:48.257Z,-1.90
2023-01-15T22:09:52.958Z,-1.88
2023-01-15T22:11:06.890Z,-2.02
2023-01-15T22:12:10.907Z,-1.93
2023-01-15T22:13:14.572Z,-1.89
2023-01-15T22:14:22.184Z,-1.98
2023-01-15T22:15:32.513Z,-1.91
2023-01-15T22:16:36.913Z,-1.94
2023-01-15T22:17:40.546Z,-1.96
2023-01-15T22:18:49.846Z,-2.12
2023-01-15T22:19:53.237Z,-2.02
2023-01-15T22:21:02.036Z,-2.02
2023-01-15T22:22:10.938Z,-1.99
2023-01-15T22:23:14.799Z,-2.01
2023-01-15T22:24:23.229Z,-1.94
2023-01-15T22:25:28.809Z,-1.82
2023-01-15T22:26:35.784Z,-1.85
2023-01-15T22:27:43.977Z,-1.77
2023-01-15T22:28:48.154Z,-1.81
2023-01-15T22:29:52.074Z,-1.82
2023-01-15T22:30:57.704Z,-1.79
2023-01-15T22:32:03.698Z,-1.93
2023-01-15T22:33:06.918Z,-1.91
2023-01-15T22:34:13.236Z,-1.98
2023-01-15T22:35:19.401Z,-1.92
2023-01-15T22:36:24.598Z,-1.89
2023-01-15T22:37:37.187Z,-1.95
2023-01-15T22:38:42.125Z,-1.93
2023-01-15T22:39:46.415Z,-1.94
2023-01-15T22:40:50.074Z,-1.92
2023-01-15T22:42:14.761Z,-1.87
2023-01-15T22:43:27.603Z,-1.79
2023-01-15T22:44:31.761Z,-1.74
2023-01-15T22:45:41.151Z,-1.79
2023-01-15T22:46:45.542Z,-1.73
2023-01-15T22:47:48.884Z,-1.75
2023-01-15T22:48:54.476Z,-1.80
2023-01-15T22:49:58.695Z,-1.82
2023-01-15T22:51:03.300Z,-1.76
2023-01-15T22:52:11.592Z,-1.76
2023-01-15T22:53:16.774Z,-1.80
2023-01-15T22:54:20.789Z,-1.77
2023-01-15T22:55:25.026Z,-1.81
2023-01-15T22:56:28.923Z,-1.77
2023-01-15T22:57:32.742Z,-1.77
2023-01-15T22:58:42.679Z,-1.77
2023-01-15T22:59:48.021Z,-1.83
2023-01-15T23:00:57.697Z,-1.85
2023-01-15T23:02:01.572Z,-1.84
2023-01-15T23:03:08.362Z,-1.86
2023-01-15T23:04:19.244Z,-1.82
2023-01-15T23:05:26.000Z,-1.86
2023-01-15T23:06:29.928Z,-1.86
2023-01-15T23:07:35.587Z,-1.86
2023-01-15T23:09:01.274Z,-1.77
2023-01-15T23:10:13.452Z,-1.87
2023-01-15T23:11:17.786Z,-1.86
2023-01-15T23:12:24.350Z,-1.80
2023-01-15T23:13:41.184Z,-1.88
2023-01-15T23:14:57.548Z,-1.91
2023-01-15T23:16:12.861Z,-1.88
2023-01-15T23:17:38.748Z,-1.94
2023-01-15T23:18:43.397Z,-1.81
2023-01-15T23:19:52.218Z,-1.85
2023-01-15T23:21:06.385Z,-1.72
2023-01-15T23:22:19.582Z,-1.81
2023-01-15T23:23:30.129Z,-1.89
2023-01-15T23:24:37.037Z,-1.88
2023-01-15T23:25:40.650Z,-1.93
2023-01-15T23:26:51.537Z,-1.89
2023-01-15T23:27:54.628Z,-1.91
2023-01-15T23:28:58.672Z,-1.82
2023-01-15T23:30:07.129Z,-1.94
2023-01-15T23:31:16.302Z,-1.83
2023-01-15T23:32:32.560Z,-1.89
2023-01-15T23:33:50.096Z,-1.81
2023-01-15T23:35:03.044Z,-1.84
2023-01-15T23:36:13.609Z,-1.75
2023-01-15T23:37:24.395Z,-1.71
2023-01-15T23:38:49.401Z,-1.70
2023-01-15T23:39:56.623Z,-1.76
2023-01-15T23:41:00.353Z,-1.71
2023-01-15T23:42:21.864Z,-1.61
2023-01-15T23:43:45.998Z,-1.63
2023-01-15T23:45:12.245Z,-1.63
2023-01-15T23:46:33.596Z,-1.63
2023-01-15T23:47:38.045Z,-1.74
2023-01-15T23:48:41.388Z,-1.76
2023-01-15T23:49:54.741Z,-1.68
2023-01-15T23:50:57.957Z,-1.75
2023-01-15T23:52:14.902Z,-1.88
2023-01-15T23:54:52.749Z,-1.70
2023-01-15T23:56:00.819Z,-1.71
2023-01-15T23:57:04.223Z,-1.74
2023-01-15T23:58:10.276Z,-1.82
2023-01-15T23:59:13.856Z,-1.81
